sensor_id;sensor_type;location;lat;lon;timestamp;P1;durP1;ratioP1;P2;durP2;ratioP2
22861;SDS011;11598;50.652;6.172;2023-04-25T00:05:26;17.42;;;6.22;;
22861;SDS011;11598;50.652;6.172;2023-04-25T00:15:27;13.65;;;6.45;;
22861;SDS011;11598;50.652;6.172;2023-04-25T00:25:30;13.57;;;7.47;;
22861;SDS011;11598;50.652;6.172;2023-04-25T00:35:30;17.35;;;6.28;;
22861;SDS011;11598;50.652;6.172;2023-04-25T00:55:33;16.50;;;7.37;;
22861;SDS011;11598;50.652;6.172;2023-04-25T01:05:36;17.50;;;7.78;;
22861;SDS011;11598;50.652;6.172;2023-04-25T01:15:36;20.63;;;8.63;;
22861;SDS011;11598;50.652;6.172;2023-04-25T01:25:36;21.73;;;7.93;;
22861;SDS011;11598;50.652;6.172;2023-04-25T01:35:38;21.20;;;7.72;;
22861;SDS011;11598;50.652;6.172;2023-04-25T01:45:38;21.58;;;7.75;;
22861;SDS011;11598;50.652;6.172;2023-04-25T01:55:42;16.77;;;7.30;;
22861;SDS011;11598;50.652;6.172;2023-04-25T02:05:42;22.15;;;6.93;;
22861;SDS011;11598;50.652;6.172;2023-04-25T02:15:43;22.25;;;6.70;;
22861;SDS011;11598;50.652;6.172;2023-04-25T02:25:43;18.48;;;6.50;;
22861;SDS011;11598;50.652;6.172;2023-04-25T02:35:43;22.77;;;6.97;;
22861;SDS011;11598;50.652;6.172;2023-04-25T02:45:44;20.85;;;6.72;;
22861;SDS011;11598;50.652;6.172;2023-04-25T02:55:44;20.13;;;6.35;;
22861;SDS011;11598;50.652;6.172;2023-04-25T03:05:45;22.55;;;7.25;;
22861;SDS011;11598;50.652;6.172;2023-04-25T03:15:46;27.77;;;7.00;;
22861;SDS011;11598;50.652;6.172;2023-04-25T03:25:47;25.73;;;7.40;;
22861;SDS011;11598;50.652;6.172;2023-04-25T03:35:47;25.40;;;7.43;;
22861;SDS011;11598;50.652;6.172;2023-04-25T03:45:47;31.67;;;8.90;;
22861;SDS011;11598;50.652;6.172;2023-04-25T03:55:48;30.30;;;8.10;;
22861;SDS011;11598;50.652;6.172;2023-04-25T04:05:48;31.98;;;9.25;;
22861;SDS011;11598;50.652;6.172;2023-04-25T04:15:48;26.38;;;9.25;;
22861;SDS011;11598;50.652;6.172;2023-04-25T04:25:49;36.28;;;9.07;;
22861;SDS011;11598;50.652;6.172;2023-04-25T04:35:50;36.28;;;9.18;;
22861;SDS011;11598;50.652;6.172;2023-04-25T04:45:52;34.90;;;8.13;;
22861;SDS011;11598;50.652;6.172;2023-04-25T04:55:56;23.45;;;7.32;;
22861;SDS011;11598;50.652;6.172;2023-04-25T05:05:56;24.73;;;7.60;;
22861;SDS011;11598;50.652;6.172;2023-04-25T05:15:56;34.15;;;6.45;;
22861;SDS011;11598;50.652;6.172;2023-04-25T05:25:57;25.00;;;6.88;;
22861;SDS011;11598;50.652;6.172;2023-04-25T05:35:57;24.23;;;7.03;;
22861;SDS011;11598;50.652;6.172;2023-04-25T05:45:57;27.58;;;6.65;;
22861;SDS011;11598;50.652;6.172;2023-04-25T05:55:58;25.85;;;6.43;;
22861;SDS011;11598;50.652;6.172;2023-04-25T06:05:58;22.00;;;5.47;;
22861;SDS011;11598;50.652;6.172;2023-04-25T06:15:59;23.15;;;6.20;;
22861;SDS011;11598;50.652;6.172;2023-04-25T06:25:59;27.88;;;6.63;;
22861;SDS011;11598;50.652;6.172;2023-04-25T06:35:59;32.25;;;6.55;;
22861;SDS011;11598;50.652;6.172;2023-04-25T06:46:00;23.10;;;5.53;;
22861;SDS011;11598;50.652;6.172;2023-04-25T06:56:00;25.25;;;6.18;;
22861;SDS011;11598;50.652;6.172;2023-04-25T07:06:01;26.42;;;6.32;;
22861;SDS011;11598;50.652;6.172;2023-04-25T07:16:01;21.90;;;5.47;;
22861;SDS011;11598;50.652;6.172;2023-04-25T07:26:02;24.05;;;5.63;;
22861;SDS011;11598;50.652;6.172;2023-04-25T07:36:02;22.25;;;5.50;;
22861;SDS011;11598;50.652;6.172;2023-04-25T07:46:03;17.13;;;3.60;;
22861;SDS011;11598;50.652;6.172;2023-04-25T07:56:04;13.18;;;4.50;;
22861;SDS011;11598;50.652;6.172;2023-04-25T08:06:04;15.85;;;4.03;;
22861;SDS011;11598;50.652;6.172;2023-04-25T08:16:05;13.18;;;4.15;;
22861;SDS011;11598;50.652;6.172;2023-04-25T08:26:05;18.98;;;4.00;;
22861;SDS011;11598;50.652;6.172;2023-04-25T08:36:06;13.60;;;3.42;;
22861;SDS011;11598;50.652;6.172;2023-04-25T08:46:06;13.13;;;3.70;;
22861;SDS011;11598;50.652;6.172;2023-04-25T08:56:08;18.65;;;3.58;;
22861;SDS011;11598;50.652;6.172;2023-04-25T09:06:13;11.27;;;2.50;;
22861;SDS011;11598;50.652;6.172;2023-04-25T09:16:14;17.58;;;3.35;;
22861;SDS011;11598;50.652;6.172;2023-04-25T09:26:18;11.77;;;3.20;;
22861;SDS011;11598;50.652;6.172;2023-04-25T09:36:19;15.80;;;3.53;;
22861;SDS011;11598;50.652;6.172;2023-04-25T09:46:32;16.17;;;3.45;;
22861;SDS011;11598;50.652;6.172;2023-04-25T09:56:35;11.95;;;3.33;;
22861;SDS011;11598;50.652;6.172;2023-04-25T10:06:39;11.40;;;3.28;;
22861;SDS011;11598;50.652;6.172;2023-04-25T10:26:43;11.75;;;3.10;;
22861;SDS011;11598;50.652;6.172;2023-04-25T10:36:48;13.50;;;3.70;;
22861;SDS011;11598;50.652;6.172;2023-04-25T10:46:51;12.80;;;3.40;;
22861;SDS011;11598;50.652;6.172;2023-04-25T10:56:51;12.90;;;3.35;;
22861;SDS011;11598;50.652;6.172;2023-04-25T11:17:02;17.48;;;4.47;;
22861;SDS011;11598;50.652;6.172;2023-04-25T11:27:03;12.60;;;4.00;;
22861;SDS011;11598;50.652;6.172;2023-04-25T11:37:05;13.88;;;3.92;;
22861;SDS011;11598;50.652;6.172;2023-04-25T11:47:06;10.10;;;4.00;;
22861;SDS011;11598;50.652;6.172;2023-04-25T11:57:06;14.38;;;4.20;;
22861;SDS011;11598;50.652;6.172;2023-04-25T12:07:09;13.07;;;4.20;;
22861;SDS011;11598;50.652;6.172;2023-04-25T12:17:09;14.43;;;4.25;;
22861;SDS011;11598;50.652;6.172;2023-04-25T12:27:13;13.00;;;3.45;;
22861;SDS011;11598;50.652;6.172;2023-04-25T12:37:19;14.65;;;3.08;;
22861;SDS011;11598;50.652;6.172;2023-04-25T12:47:20;12.00;;;3.83;;
22861;SDS011;11598;50.652;6.172;2023-04-25T12:57:21;12.85;;;2.90;;
22861;SDS011;11598;50.652;6.172;2023-04-25T13:07:21;10.45;;;2.75;;
22861;SDS011;11598;50.652;6.172;2023-04-25T13:17:22;11.55;;;2.63;;
22861;SDS011;11598;50.652;6.172;2023-04-25T13:27:22;10.30;;;2.00;;
22861;SDS011;11598;50.652;6.172;2023-04-25T13:37:22;12.40;;;1.63;;
22861;SDS011;11598;50.652;6.172;2023-04-25T13:47:25;5.10;;;1.48;;
22861;SDS011;11598;50.652;6.172;2023-04-25T13:57:26;6.35;;;1.50;;
22861;SDS011;11598;50.652;6.172;2023-04-25T14:07:26;6.53;;;1.48;;
22861;SDS011;11598;50.652;6.172;2023-04-25T14:17:27;7.22;;;1.60;;
22861;SDS011;11598;50.652;6.172;2023-04-25T14:27:27;13.20;;;2.72;;
22861;SDS011;11598;50.652;6.172;2023-04-25T14:37:27;10.13;;;2.35;;
22861;SDS011;11598;50.652;6.172;2023-04-25T14:47:28;7.70;;;2.50;;
22861;SDS011;11598;50.652;6.172;2023-04-25T14:57:28;12.23;;;2.10;;
22861;SDS011;11598;50.652;6.172;2023-04-25T15:07:28;8.45;;;1.85;;
22861;SDS011;11598;50.652;6.172;2023-04-25T15:17:29;8.18;;;2.35;;
22861;SDS011;11598;50.652;6.172;2023-04-25T15:27:30;7.63;;;2.13;;
22861;SDS011;11598;50.652;6.172;2023-04-25T15:37:31;8.98;;;2.20;;
22861;SDS011;11598;50.652;6.172;2023-04-25T15:47:35;6.35;;;1.98;;
22861;SDS011;11598;50.652;6.172;2023-04-25T15:57:37;11.32;;;2.78;;
22861;SDS011;11598;50.652;6.172;2023-04-25T16:07:40;5.95;;;1.95;;
22861;SDS011;11598;50.652;6.172;2023-04-25T16:17:42;11.10;;;2.10;;
22861;SDS011;11598;50.652;6.172;2023-04-25T16:27:42;8.80;;;2.47;;
22861;SDS011;11598;50.652;6.172;2023-04-25T16:37:43;12.13;;;2.10;;
22861;SDS011;11598;50.652;6.172;2023-04-25T16:47:43;7.30;;;2.00;;
22861;SDS011;11598;50.652;6.172;2023-04-25T16:57:44;9.52;;;3.80;;
22861;SDS011;11598;50.652;6.172;2023-04-25T17:07:44;8.82;;;2.03;;
22861;SDS011;11598;50.652;6.172;2023-04-25T17:17:44;5.55;;;1.77;;
22861;SDS011;11598;50.652;6.172;2023-04-25T17:27:45;6.63;;;1.85;;
22861;SDS011;11598;50.652;6.172;2023-04-25T17:37:45;8.07;;;1.95;;
22861;SDS011;11598;50.652;6.172;2023-04-25T17:47:46;6.15;;;1.73;;
22861;SDS011;11598;50.652;6.172;2023-04-25T17:57:46;7.75;;;1.75;;
22861;SDS011;11598;50.652;6.172;2023-04-25T18:07:47;7.00;;;1.85;;
22861;SDS011;11598;50.652;6.172;2023-04-25T18:17:47;7.03;;;1.50;;
22861;SDS011;11598;50.652;6.172;2023-04-25T18:27:47;9.10;;;1.55;;
22861;SDS011;11598;50.652;6.172;2023-04-25T18:37:49;6.75;;;1.67;;
22861;SDS011;11598;50.652;6.172;2023-04-25T18:47:50;7.35;;;1.90;;
22861;SDS011;11598;50.652;6.172;2023-04-25T18:57:50;5.50;;;1.75;;
22861;SDS011;11598;50.652;6.172;2023-04-25T19:07:50;5.97;;;1.10;;
22861;SDS011;11598;50.652;6.172;2023-04-25T19:17:51;11.68;;;1.60;;
22861;SDS011;11598;50.652;6.172;2023-04-25T19:27:51;6.75;;;1.35;;
22861;SDS011;11598;50.652;6.172;2023-04-25T19:37:52;6.63;;;1.85;;
22861;SDS011;11598;50.652;6.172;2023-04-25T19:47:53;6.28;;;1.75;;
22861;SDS011;11598;50.652;6.172;2023-04-25T19:57:54;9.55;;;1.50;;
22861;SDS011;11598;50.652;6.172;2023-04-25T20:07:54;8.93;;;2.67;;
22861;SDS011;11598;50.652;6.172;2023-04-25T20:17:54;9.70;;;1.95;;
22861;SDS011;11598;50.652;6.172;2023-04-25T20:27:55;16.75;;;2.05;;
22861;SDS011;11598;50.652;6.172;2023-04-25T20:37:55;10.02;;;2.38;;
22861;SDS011;11598;50.652;6.172;2023-04-25T20:47:56;8.25;;;1.70;;
22861;SDS011;11598;50.652;6.172;2023-04-25T20:57:57;8.77;;;2.10;;
22861;SDS011;11598;50.652;6.172;2023-04-25T21:07:57;8.67;;;1.57;;
22861;SDS011;11598;50.652;6.172;2023-04-25T21:17:58;7.57;;;1.70;;
22861;SDS011;11598;50.652;6.172;2023-04-25T21:27:58;6.55;;;1.75;;
22861;SDS011;11598;50.652;6.172;2023-04-25T21:38:01;11.83;;;2.13;;
22861;SDS011;11598;50.652;6.172;2023-04-25T21:48:01;7.13;;;2.00;;
22861;SDS011;11598;50.652;6.172;2023-04-25T21:58:01;9.43;;;2.45;;
22861;SDS011;11598;50.652;6.172;2023-04-25T22:08:02;9.10;;;2.22;;
22861;SDS011;11598;50.652;6.172;2023-04-25T22:18:02;11.10;;;2.45;;
22861;SDS011;11598;50.652;6.172;2023-04-25T22:28:04;10.43;;;3.05;;
22861;SDS011;11598;50.652;6.172;2023-04-25T22:38:04;9.05;;;2.50;;
22861;SDS011;11598;50.652;6.172;2023-04-25T22:48:05;11.13;;;3.20;;
22861;SDS011;11598;50.652;6.172;2023-04-25T22:58:05;9.48;;;2.55;;
22861;SDS011;11598;50.652;6.172;2023-04-25T23:08:09;9.52;;;2.65;;
22861;SDS011;11598;50.652;6.172;2023-04-25T23:18:09;10.27;;;2.95;;
22861;SDS011;11598;50.652;6.172;2023-04-25T23:28:09;14.50;;;3.60;;
22861;SDS011;11598;50.652;6.172;2023-04-25T23:38:10;10.55;;;2.80;;
22861;SDS011;11598;50.652;6.172;2023-04-25T23:48:11;8.80;;;3.03;;
22861;SDS011;11598;50.652;6.172;2023-04-25T23:58:12;8.73;;;2.75;;
